sensor_id;sensor_type;location;lat;lon;timestamp;P1;durP1;ratioP1;P2;durP2;ratioP2
60641;SDS011;46837;52.446;-1.930;2024-02-14T00:00:10;5.90;;;1.48;;
60641;SDS011;46837;52.446;-1.930;2024-02-14T00:01:09;7.02;;;1.10;;
60641;SDS011;46837;52.446;-1.930;2024-02-14T00:02:07;6.90;;;1.06;;
60641;SDS011;46837;52.446;-1.930;2024-02-14T00:03:07;7.68;;;1.08;;
60641;SDS011;46837;52.446;-1.930;2024-02-14T00:04:08;14.44;;;1.76;;
60641;SDS011;46837;52.446;-1.930;2024-02-14T00:05:07;3.12;;;0.86;;
60641;SDS011;46837;52.446;-1.930;2024-02-14T00:06:07;9.00;;;1.74;;
60641;SDS011;46837;52.446;-1.930;2024-02-14T00:07:07;10.20;;;1.94;;
60641;SDS011;46837;52.446;-1.930;2024-02-14T00:08:07;9.06;;;1.24;;
60641;SDS011;46837;52.446;-1.930;2024-02-14T00:09:07;11.10;;;1.66;;
60641;SDS011;46837;52.446;-1.930;2024-02-14T00:10:07;7.14;;;1.74;;
60641;SDS011;46837;52.446;-1.930;2024-02-14T00:11:07;8.02;;;1.70;;
60641;SDS011;46837;52.446;-1.930;2024-02-14T00:12:07;7.30;;;1.28;;
60641;SDS011;46837;52.446;-1.930;2024-02-14T00:13:07;5.86;;;1.08;;
60641;SDS011;46837;52.446;-1.930;2024-02-14T00:14:08;12.06;;;1.52;;
60641;SDS011;46837;52.446;-1.930;2024-02-14T00:15:07;6.48;;;1.94;;
60641;SDS011;46837;52.446;-1.930;2024-02-14T00:16:07;11.60;;;1.68;;
60641;SDS011;46837;52.446;-1.930;2024-02-14T00:17:07;3.82;;;1.48;;
60641;SDS011;46837;52.446;-1.930;2024-02-14T00:18:07;8.64;;;1.82;;
60641;SDS011;46837;52.446;-1.930;2024-02-14T00:19:07;5.62;;;2.80;;
60641;SDS011;46837;52.446;-1.930;2024-02-14T00:20:07;10.04;;;1.60;;
60641;SDS011;46837;52.446;-1.930;2024-02-14T00:21:07;7.38;;;1.46;;
60641;SDS011;46837;52.446;-1.930;2024-02-14T00:22:07;7.74;;;1.50;;
60641;SDS011;46837;52.446;-1.930;2024-02-14T00:23:07;7.26;;;1.34;;
60641;SDS011;46837;52.446;-1.930;2024-02-14T00:24:07;11.12;;;1.86;;
60641;SDS011;46837;52.446;-1.930;2024-02-14T00:25:07;10.42;;;1.62;;
60641;SDS011;46837;52.446;-1.930;2024-02-14T00:26:07;11.80;;;2.12;;
60641;SDS011;46837;52.446;-1.930;2024-02-14T00:27:07;9.02;;;1.88;;
60641;SDS011;46837;52.446;-1.930;2024-02-14T00:28:07;6.86;;;1.54;;
60641;SDS011;46837;52.446;-1.930;2024-02-14T00:29:07;6.54;;;1.18;;
60641;SDS011;46837;52.446;-1.930;2024-02-14T00:30:07;10.68;;;1.94;;
60641;SDS011;46837;52.446;-1.930;2024-02-14T00:31:07;14.52;;;2.12;;
60641;SDS011;46837;52.446;-1.930;2024-02-14T00:32:07;11.00;;;2.58;;
60641;SDS011;46837;52.446;-1.930;2024-02-14T00:33:07;9.60;;;2.16;;
60641;SDS011;46837;52.446;-1.930;2024-02-14T00:34:07;13.84;;;3.34;;
60641;SDS011;46837;52.446;-1.930;2024-02-14T00:35:07;13.94;;;2.20;;
60641;SDS011;46837;52.446;-1.930;2024-02-14T00:36:07;16.36;;;2.46;;
60641;SDS011;46837;52.446;-1.930;2024-02-14T00:37:07;14.56;;;2.76;;
60641;SDS011;46837;52.446;-1.930;2024-02-14T00:38:07;18.26;;;3.84;;
60641;SDS011;46837;52.446;-1.930;2024-02-14T00:39:09;13.08;;;2.78;;
60641;SDS011;46837;52.446;-1.930;2024-02-14T00:40:07;18.16;;;2.60;;
60641;SDS011;46837;52.446;-1.930;2024-02-14T00:41:07;12.40;;;2.48;;
60641;SDS011;46837;52.446;-1.930;2024-02-14T00:42:07;13.44;;;2.52;;
60641;SDS011;46837;52.446;-1.930;2024-02-14T00:43:07;19.68;;;2.66;;
60641;SDS011;46837;52.446;-1.930;2024-02-14T00:44:07;14.52;;;3.22;;
60641;SDS011;46837;52.446;-1.930;2024-02-14T00:45:07;20.28;;;2.96;;
60641;SDS011;46837;52.446;-1.930;2024-02-14T00:46:07;14.34;;;3.12;;
60641;SDS011;46837;52.446;-1.930;2024-02-14T00:47:07;12.78;;;2.68;;
60641;SDS011;46837;52.446;-1.930;2024-02-14T00:48:07;18.28;;;4.20;;
60641;SDS011;46837;52.446;-1.930;2024-02-14T00:49:07;16.36;;;2.74;;
60641;SDS011;46837;52.446;-1.930;2024-02-14T00:50:07;12.70;;;2.56;;
60641;SDS011;46837;52.446;-1.930;2024-02-14T00:51:07;17.52;;;2.80;;
60641;SDS011;46837;52.446;-1.930;2024-02-14T00:52:07;18.44;;;3.20;;
60641;SDS011;46837;52.446;-1.930;2024-02-14T00:53:07;19.56;;;3.68;;
60641;SDS011;46837;52.446;-1.930;2024-02-14T00:54:07;14.14;;;2.30;;
60641;SDS011;46837;52.446;-1.930;2024-02-14T00:55:07;18.04;;;3.00;;
60641;SDS011;46837;52.446;-1.930;2024-02-14T00:56:07;14.20;;;3.10;;
60641;SDS011;46837;52.446;-1.930;2024-02-14T00:57:07;8.50;;;2.66;;
60641;SDS011;46837;52.446;-1.930;2024-02-14T00:58:07;14.64;;;2.58;;
60641;SDS011;46837;52.446;-1.930;2024-02-14T00:59:07;14.92;;;3.54;;
60641;SDS011;46837;52.446;-1.930;2024-02-14T01:00:07;18.52;;;4.98;;
60641;SDS011;46837;52.446;-1.930;2024-02-14T01:01:07;19.84;;;2.96;;
60641;SDS011;46837;52.446;-1.930;2024-02-14T01:02:07;9.86;;;2.06;;
60641;SDS011;46837;52.446;-1.930;2024-02-14T01:03:07;15.12;;;3.86;;
60641;SDS011;46837;52.446;-1.930;2024-02-14T01:04:07;11.36;;;2.34;;
60641;SDS011;46837;52.446;-1.930;2024-02-14T01:05:07;13.06;;;2.82;;
60641;SDS011;46837;52.446;-1.930;2024-02-14T01:06:07;15.62;;;2.14;;
60641;SDS011;46837;52.446;-1.930;2024-02-14T01:07:07;14.04;;;3.28;;
60641;SDS011;46837;52.446;-1.930;2024-02-14T01:08:07;16.36;;;2.80;;
60641;SDS011;46837;52.446;-1.930;2024-02-14T01:09:07;11.20;;;2.78;;
60641;SDS011;46837;52.446;-1.930;2024-02-14T01:10:07;9.66;;;2.48;;
60641;SDS011;46837;52.446;-1.930;2024-02-14T01:11:09;13.36;;;2.14;;
60641;SDS011;46837;52.446;-1.930;2024-02-14T01:12:07;13.84;;;3.52;;
60641;SDS011;46837;52.446;-1.930;2024-02-14T01:13:07;16.20;;;2.64;;
60641;SDS011;46837;52.446;-1.930;2024-02-14T01:14:07;14.14;;;3.10;;
60641;SDS011;46837;52.446;-1.930;2024-02-14T01:15:07;8.82;;;2.50;;
60641;SDS011;46837;52.446;-1.930;2024-02-14T01:16:07;13.48;;;2.82;;
60641;SDS011;46837;52.446;-1.930;2024-02-14T01:17:07;13.98;;;2.48;;
60641;SDS011;46837;52.446;-1.930;2024-02-14T01:18:07;12.70;;;2.38;;
60641;SDS011;46837;52.446;-1.930;2024-02-14T01:19:07;10.44;;;2.46;;
60641;SDS011;46837;52.446;-1.930;2024-02-14T01:20:07;13.14;;;2.52;;
60641;SDS011;46837;52.446;-1.930;2024-02-14T01:21:07;12.58;;;2.22;;
60641;SDS011;46837;52.446;-1.930;2024-02-14T01:22:07;10.78;;;2.00;;
60641;SDS011;46837;52.446;-1.930;2024-02-14T01:23:07;13.14;;;2.04;;
60641;SDS011;46837;52.446;-1.930;2024-02-14T01:24:07;14.38;;;2.48;;
60641;SDS011;46837;52.446;-1.930;2024-02-14T01:25:07;12.58;;;2.74;;
60641;SDS011;46837;52.446;-1.930;2024-02-14T01:26:07;11.86;;;1.94;;
60641;SDS011;46837;52.446;-1.930;2024-02-14T01:27:07;13.28;;;2.48;;
60641;SDS011;46837;52.446;-1.930;2024-02-14T01:28:07;16.04;;;2.70;;
60641;SDS011;46837;52.446;-1.930;2024-02-14T01:29:07;11.60;;;1.96;;
60641;SDS011;46837;52.446;-1.930;2024-02-14T01:30:07;15.66;;;2.18;;
60641;SDS011;46837;52.446;-1.930;2024-02-14T01:31:08;14.22;;;1.92;;
60641;SDS011;46837;52.446;-1.930;2024-02-14T01:32:07;15.40;;;2.92;;
60641;SDS011;46837;52.446;-1.930;2024-02-14T01:33:07;11.92;;;2.00;;
60641;SDS011;46837;52.446;-1.930;2024-02-14T01:34:07;13.26;;;2.22;;
60641;SDS011;46837;52.446;-1.930;2024-02-14T01:35:07;9.28;;;2.16;;
60641;SDS011;46837;52.446;-1.930;2024-02-14T01:36:07;14.20;;;2.32;;
60641;SDS011;46837;52.446;-1.930;2024-02-14T01:37:07;20.24;;;3.60;;
60641;SDS011;46837;52.446;-1.930;2024-02-14T01:38:07;12.88;;;2.66;;
60641;SDS011;46837;52.446;-1.930;2024-02-14T01:39:11;9.76;;;1.90;;
60641;SDS011;46837;52.446;-1.930;2024-02-14T01:40:07;16.82;;;2.30;;
60641;SDS011;46837;52.446;-1.930;2024-02-14T01:41:07;11.30;;;2.70;;
60641;SDS011;46837;52.446;-1.930;2024-02-14T01:42:08;12.42;;;2.30;;
60641;SDS011;46837;52.446;-1.930;2024-02-14T01:43:07;12.40;;;2.18;;
60641;SDS011;46837;52.446;-1.930;2024-02-14T01:44:07;9.24;;;2.18;;
60641;SDS011;46837;52.446;-1.930;2024-02-14T01:45:07;20.76;;;2.56;;
60641;SDS011;46837;52.446;-1.930;2024-02-14T01:46:07;16.96;;;2.72;;
60641;SDS011;46837;52.446;-1.930;2024-02-14T01:47:07;20.18;;;2.30;;
60641;SDS011;46837;52.446;-1.930;2024-02-14T01:48:07;10.44;;;2.82;;
60641;SDS011;46837;52.446;-1.930;2024-02-14T01:49:07;15.92;;;2.42;;
60641;SDS011;46837;52.446;-1.930;2024-02-14T01:50:09;8.76;;;2.30;;
60641;SDS011;46837;52.446;-1.930;2024-02-14T01:51:08;11.18;;;1.98;;
60641;SDS011;46837;52.446;-1.930;2024-02-14T01:52:07;11.76;;;2.80;;
60641;SDS011;46837;52.446;-1.930;2024-02-14T01:53:07;9.90;;;2.78;;
60641;SDS011;46837;52.446;-1.930;2024-02-14T01:54:07;14.94;;;3.28;;
60641;SDS011;46837;52.446;-1.930;2024-02-14T01:55:07;10.70;;;2.46;;
60641;SDS011;46837;52.446;-1.930;2024-02-14T01:56:07;9.40;;;2.58;;
60641;SDS011;46837;52.446;-1.930;2024-02-14T01:57:07;11.08;;;2.86;;
60641;SDS011;46837;52.446;-1.930;2024-02-14T01:58:07;9.82;;;2.04;;
60641;SDS011;46837;52.446;-1.930;2024-02-14T01:59:07;11.44;;;2.74;;
60641;SDS011;46837;52.446;-1.930;2024-02-14T02:00:09;11.64;;;2.78;;
60641;SDS011;46837;52.446;-1.930;2024-02-14T02:01:07;12.72;;;3.44;;
60641;SDS011;46837;52.446;-1.930;2024-02-14T02:02:09;9.12;;;2.28;;
60641;SDS011;46837;52.446;-1.930;2024-02-14T02:03:07;6.10;;;1.92;;
60641;SDS011;46837;52.446;-1.930;2024-02-14T02:04:07;17.26;;;2.74;;
60641;SDS011;46837;52.446;-1.930;2024-02-14T02:05:07;16.66;;;2.64;;
60641;SDS011;46837;52.446;-1.930;2024-02-14T02:06:07;12.92;;;2.74;;
60641;SDS011;46837;52.446;-1.930;2024-02-14T02:07:07;16.92;;;2.68;;
60641;SDS011;46837;52.446;-1.930;2024-02-14T02:08:09;6.20;;;2.04;;
60641;SDS011;46837;52.446;-1.930;2024-02-14T02:09:08;12.18;;;1.78;;
60641;SDS011;46837;52.446;-1.930;2024-02-14T02:10:07;8.78;;;1.88;;
60641;SDS011;46837;52.446;-1.930;2024-02-14T02:11:07;10.92;;;4.06;;
60641;SDS011;46837;52.446;-1.930;2024-02-14T02:12:08;4.68;;;2.28;;
60641;SDS011;46837;52.446;-1.930;2024-02-14T02:13:07;10.72;;;2.04;;
60641;SDS011;46837;52.446;-1.930;2024-02-14T02:14:07;11.44;;;2.86;;
60641;SDS011;46837;52.446;-1.930;2024-02-14T02:15:07;10.28;;;2.76;;
60641;SDS011;46837;52.446;-1.930;2024-02-14T02:16:07;7.46;;;2.42;;
60641;SDS011;46837;52.446;-1.930;2024-02-14T02:17:08;4.70;;;2.30;;
60641;SDS011;46837;52.446;-1.930;2024-02-14T02:18:07;7.20;;;2.26;;
60641;SDS011;46837;52.446;-1.930;2024-02-14T02:19:09;9.62;;;2.84;;
60641;SDS011;46837;52.446;-1.930;2024-02-14T02:20:08;8.68;;;2.16;;
60641;SDS011;46837;52.446;-1.930;2024-02-14T02:21:07;3.46;;;2.08;;
60641;SDS011;46837;52.446;-1.930;2024-02-14T02:22:07;6.02;;;1.90;;
60641;SDS011;46837;52.446;-1.930;2024-02-14T02:23:07;5.14;;;2.36;;
60641;SDS011;46837;52.446;-1.930;2024-02-14T02:24:07;14.66;;;3.22;;
60641;SDS011;46837;52.446;-1.930;2024-02-14T02:25:08;7.28;;;2.24;;
60641;SDS011;46837;52.446;-1.930;2024-02-14T02:26:07;6.70;;;2.08;;
60641;SDS011;46837;52.446;-1.930;2024-02-14T02:27:07;7.10;;;2.40;;
60641;SDS011;46837;52.446;-1.930;2024-02-14T02:28:07;7.82;;;2.62;;
60641;SDS011;46837;52.446;-1.930;2024-02-14T02:29:07;4.94;;;1.88;;
60641;SDS011;46837;52.446;-1.930;2024-02-14T02:30:07;3.92;;;2.04;;
60641;SDS011;46837;52.446;-1.930;2024-02-14T02:31:07;3.50;;;2.30;;
60641;SDS011;46837;52.446;-1.930;2024-02-14T02:32:07;5.68;;;2.38;;
60641;SDS011;46837;52.446;-1.930;2024-02-14T02:33:07;5.24;;;2.22;;
60641;SDS011;46837;52.446;-1.930;2024-02-14T02:34:07;4.02;;;1.76;;
60641;SDS011;46837;52.446;-1.930;2024-02-14T02:35:07;4.00;;;2.00;;
60641;SDS011;46837;52.446;-1.930;2024-02-14T02:36:07;5.62;;;1.96;;
60641;SDS011;46837;52.446;-1.930;2024-02-14T02:37:08;4.72;;;2.10;;
60641;SDS011;46837;52.446;-1.930;2024-02-14T02:38:07;5.10;;;2.24;;
60641;SDS011;46837;52.446;-1.930;2024-02-14T02:39:07;2.98;;;1.66;;
60641;SDS011;46837;52.446;-1.930;2024-02-14T02:40:07;6.44;;;2.14;;
60641;SDS011;46837;52.446;-1.930;2024-02-14T02:41:08;6.88;;;2.08;;
60641;SDS011;46837;52.446;-1.930;2024-02-14T02:42:07;2.86;;;1.58;;
60641;SDS011;46837;52.446;-1.930;2024-02-14T02:43:07;3.14;;;1.44;;
60641;SDS011;46837;52.446;-1.930;2024-02-14T02:44:07;3.24;;;2.06;;
60641;SDS011;46837;52.446;-1.930;2024-02-14T02:45:07;2.66;;;1.78;;
60641;SDS011;46837;52.446;-1.930;2024-02-14T02:46:08;6.62;;;1.86;;
60641;SDS011;46837;52.446;-1.930;2024-02-14T02:47:07;4.08;;;1.82;;
60641;SDS011;46837;52.446;-1.930;2024-02-14T02:48:07;5.06;;;1.86;;
60641;SDS011;46837;52.446;-1.930;2024-02-14T02:49:07;6.38;;;2.02;;
60641;SDS011;46837;52.446;-1.930;2024-02-14T02:50:07;5.44;;;1.72;;
60641;SDS011;46837;52.446;-1.930;2024-02-14T02:51:07;4.60;;;1.86;;
60641;SDS011;46837;52.446;-1.930;2024-02-14T02:52:07;6.08;;;2.16;;
60641;SDS011;46837;52.446;-1.930;2024-02-14T02:53:07;5.90;;;1.88;;
60641;SDS011;46837;52.446;-1.930;2024-02-14T02:54:07;4.30;;;2.30;;
60641;SDS011;46837;52.446;-1.930;2024-02-14T02:55:07;7.38;;;2.00;;
60641;SDS011;46837;52.446;-1.930;2024-02-14T02:56:07;5.22;;;1.86;;
60641;SDS011;46837;52.446;-1.930;2024-02-14T02:57:07;5.44;;;2.22;;
60641;SDS011;46837;52.446;-1.930;2024-02-14T02:58:07;4.22;;;2.28;;
60641;SDS011;46837;52.446;-1.930;2024-02-14T02:59:07;5.96;;;2.66;;
60641;SDS011;46837;52.446;-1.930;2024-02-14T03:00:07;9.14;;;2.86;;
60641;SDS011;46837;52.446;-1.930;2024-02-14T03:01:09;8.72;;;2.78;;
60641;SDS011;46837;52.446;-1.930;2024-02-14T03:02:10;6.72;;;2.44;;
60641;SDS011;46837;52.446;-1.930;2024-02-14T03:03:09;6.68;;;2.50;;
60641;SDS011;46837;52.446;-1.930;2024-02-14T03:04:07;5.70;;;2.40;;
60641;SDS011;46837;52.446;-1.930;2024-02-14T03:05:11;6.16;;;2.56;;
60641;SDS011;46837;52.446;-1.930;2024-02-14T03:06:07;5.44;;;2.58;;
60641;SDS011;46837;52.446;-1.930;2024-02-14T03:07:09;6.26;;;2.76;;
60641;SDS011;46837;52.446;-1.930;2024-02-14T03:08:08;5.92;;;2.68;;
60641;SDS011;46837;52.446;-1.930;2024-02-14T03:09:07;6.66;;;2.58;;
60641;SDS011;46837;52.446;-1.930;2024-02-14T03:10:07;6.96;;;2.82;;
60641;SDS011;46837;52.446;-1.930;2024-02-14T03:11:07;6.82;;;2.36;;
60641;SDS011;46837;52.446;-1.930;2024-02-14T03:12:07;6.32;;;2.62;;
60641;SDS011;46837;52.446;-1.930;2024-02-14T03:13:07;8.92;;;2.48;;
60641;SDS011;46837;52.446;-1.930;2024-02-14T03:14:07;4.58;;;1.82;;
60641;SDS011;46837;52.446;-1.930;2024-02-14T03:15:07;9.72;;;1.70;;
60641;SDS011;46837;52.446;-1.930;2024-02-14T03:16:07;12.64;;;2.58;;
60641;SDS011;46837;52.446;-1.930;2024-02-14T03:17:07;3.46;;;1.80;;
60641;SDS011;46837;52.446;-1.930;2024-02-14T03:18:10;4.28;;;1.68;;
60641;SDS011;46837;52.446;-1.930;2024-02-14T03:19:07;4.28;;;1.68;;
60641;SDS011;46837;52.446;-1.930;2024-02-14T03:20:11;4.64;;;1.60;;
60641;SDS011;46837;52.446;-1.930;2024-02-14T03:21:07;7.38;;;1.50;;
60641;SDS011;46837;52.446;-1.930;2024-02-14T03:22:09;9.34;;;1.54;;
60641;SDS011;46837;52.446;-1.930;2024-02-14T03:23:07;6.24;;;1.26;;
60641;SDS011;46837;52.446;-1.930;2024-02-14T03:24:07;5.56;;;1.54;;
60641;SDS011;46837;52.446;-1.930;2024-02-14T03:25:07;5.50;;;1.14;;
60641;SDS011;46837;52.446;-1.930;2024-02-14T03:26:08;5.58;;;1.04;;
60641;SDS011;46837;52.446;-1.930;2024-02-14T03:27:07;5.76;;;1.24;;
60641;SDS011;46837;52.446;-1.930;2024-02-14T03:28:09;2.64;;;1.06;;
60641;SDS011;46837;52.446;-1.930;2024-02-14T03:29:07;4.40;;;1.20;;
60641;SDS011;46837;52.446;-1.930;2024-02-14T03:30:07;3.78;;;1.22;;
60641;SDS011;46837;52.446;-1.930;2024-02-14T03:31:07;3.44;;;1.38;;
60641;SDS011;46837;52.446;-1.930;2024-02-14T03:32:07;5.72;;;1.52;;
60641;SDS011;46837;52.446;-1.930;2024-02-14T03:33:07;2.68;;;1.16;;
60641;SDS011;46837;52.446;-1.930;2024-02-14T03:34:07;3.92;;;1.30;;
60641;SDS011;46837;52.446;-1.930;2024-02-14T03:35:07;5.96;;;1.80;;
60641;SDS011;46837;52.446;-1.930;2024-02-14T03:36:07;3.64;;;1.54;;
60641;SDS011;46837;52.446;-1.930;2024-02-14T03:37:07;2.56;;;1.46;;
60641;SDS011;46837;52.446;-1.930;2024-02-14T03:38:09;3.64;;;1.22;;
60641;SDS011;46837;52.446;-1.930;2024-02-14T03:39:07;10.86;;;1.98;;
60641;SDS011;46837;52.446;-1.930;2024-02-14T03:40:07;8.80;;;2.32;;
60641;SDS011;46837;52.446;-1.930;2024-02-14T03:41:07;7.34;;;1.90;;
60641;SDS011;46837;52.446;-1.930;2024-02-14T03:42:08;8.36;;;1.76;;
60641;SDS011;46837;52.446;-1.930;2024-02-14T03:43:07;6.38;;;1.76;;
60641;SDS011;46837;52.446;-1.930;2024-02-14T03:44:07;2.22;;;1.42;;
60641;SDS011;46837;52.446;-1.930;2024-02-14T03:45:07;6.38;;;1.74;;
60641;SDS011;46837;52.446;-1.930;2024-02-14T03:46:07;5.78;;;2.36;;
60641;SDS011;46837;52.446;-1.930;2024-02-14T03:47:07;5.24;;;2.02;;
60641;SDS011;46837;52.446;-1.930;2024-02-14T03:48:07;6.30;;;1.84;;
60641;SDS011;46837;52.446;-1.930;2024-02-14T03:49:07;7.88;;;2.56;;
60641;SDS011;46837;52.446;-1.930;2024-02-14T03:50:09;5.16;;;1.86;;
60641;SDS011;46837;52.446;-1.930;2024-02-14T03:51:07;8.72;;;1.90;;
60641;SDS011;46837;52.446;-1.930;2024-02-14T03:52:10;8.74;;;2.18;;
60641;SDS011;46837;52.446;-1.930;2024-02-14T03:53:07;8.20;;;2.16;;
60641;SDS011;46837;52.446;-1.930;2024-02-14T03:54:07;4.66;;;1.68;;
60641;SDS011;46837;52.446;-1.930;2024-02-14T03:55:07;10.18;;;2.60;;
60641;SDS011;46837;52.446;-1.930;2024-02-14T03:56:07;5.82;;;1.54;;
60641;SDS011;46837;52.446;-1.930;2024-02-14T03:57:09;9.20;;;2.34;;
60641;SDS011;46837;52.446;-1.930;2024-02-14T03:58:07;7.12;;;1.56;;
60641;SDS011;46837;52.446;-1.930;2024-02-14T03:59:07;3.36;;;1.56;;
60641;SDS011;46837;52.446;-1.930;2024-02-14T04:00:09;7.92;;;2.62;;
60641;SDS011;46837;52.446;-1.930;2024-02-14T04:01:07;2.76;;;1.22;;
60641;SDS011;46837;52.446;-1.930;2024-02-14T04:02:07;3.06;;;1.44;;
60641;SDS011;46837;52.446;-1.930;2024-02-14T04:03:07;7.10;;;1.62;;
60641;SDS011;46837;52.446;-1.930;2024-02-14T04:04:07;6.88;;;1.56;;
60641;SDS011;46837;52.446;-1.930;2024-02-14T04:05:07;7.26;;;1.74;;
60641;SDS011;46837;52.446;-1.930;2024-02-14T04:06:07;2.86;;;1.56;;
60641;SDS011;46837;52.446;-1.930;2024-02-14T04:07:07;2.46;;;1.52;;
60641;SDS011;46837;52.446;-1.930;2024-02-14T04:08:07;5.62;;;1.64;;
60641;SDS011;46837;52.446;-1.930;2024-02-14T04:09:07;2.94;;;2.24;;
60641;SDS011;46837;52.446;-1.930;2024-02-14T04:10:07;6.48;;;1.84;;
60641;SDS011;46837;52.446;-1.930;2024-02-14T04:11:07;6.16;;;1.12;;
60641;SDS011;46837;52.446;-1.930;2024-02-14T04:12:07;1.94;;;1.22;;
60641;SDS011;46837;52.446;-1.930;2024-02-14T04:13:07;4.14;;;1.08;;
60641;SDS011;46837;52.446;-1.930;2024-02-14T04:14:07;7.06;;;1.60;;
60641;SDS011;46837;52.446;-1.930;2024-02-14T04:15:07;5.42;;;1.04;;
60641;SDS011;46837;52.446;-1.930;2024-02-14T04:16:07;5.82;;;1.38;;
60641;SDS011;46837;52.446;-1.930;2024-02-14T04:17:08;4.84;;;1.12;;
60641;SDS011;46837;52.446;-1.930;2024-02-14T04:18:07;3.12;;;1.24;;
60641;SDS011;46837;52.446;-1.930;2024-02-14T04:19:07;5.00;;;1.80;;
60641;SDS011;46837;52.446;-1.930;2024-02-14T04:20:07;5.18;;;1.42;;
60641;SDS011;46837;52.446;-1.930;2024-02-14T04:21:07;4.40;;;1.82;;
60641;SDS011;46837;52.446;-1.930;2024-02-14T04:22:07;2.16;;;1.18;;
60641;SDS011;46837;52.446;-1.930;2024-02-14T04:23:08;2.66;;;1.24;;
60641;SDS011;46837;52.446;-1.930;2024-02-14T04:24:07;6.86;;;1.58;;
60641;SDS011;46837;52.446;-1.930;2024-02-14T04:25:07;5.22;;;1.38;;
60641;SDS011;46837;52.446;-1.930;2024-02-14T04:26:07;6.04;;;1.22;;
60641;SDS011;46837;52.446;-1.930;2024-02-14T04:27:07;4.64;;;1.82;;
60641;SDS011;46837;52.446;-1.930;2024-02-14T04:28:07;4.98;;;1.50;;
60641;SDS011;46837;52.446;-1.930;2024-02-14T04:29:07;4.42;;;0.92;;
60641;SDS011;46837;52.446;-1.930;2024-02-14T04:30:07;3.16;;;1.34;;
60641;SDS011;46837;52.446;-1.930;2024-02-14T04:31:07;3.48;;;1.54;;
60641;SDS011;46837;52.446;-1.930;2024-02-14T04:32:07;3.90;;;1.18;;
60641;SDS011;46837;52.446;-1.930;2024-02-14T04:33:07;5.80;;;2.06;;
60641;SDS011;46837;52.446;-1.930;2024-02-14T04:34:09;3.16;;;1.24;;
60641;SDS011;46837;52.446;-1.930;2024-02-14T04:35:07;8.56;;;1.40;;
60641;SDS011;46837;52.446;-1.930;2024-02-14T04:36:07;7.44;;;1.74;;
60641;SDS011;46837;52.446;-1.930;2024-02-14T04:37:11;2.58;;;1.04;;
60641;SDS011;46837;52.446;-1.930;2024-02-14T04:38:07;7.50;;;1.36;;
60641;SDS011;46837;52.446;-1.930;2024-02-14T04:39:07;2.70;;;1.00;;
60641;SDS011;46837;52.446;-1.930;2024-02-14T04:40:07;3.52;;;1.24;;
60641;SDS011;46837;52.446;-1.930;2024-02-14T04:41:07;4.38;;;1.46;;
60641;SDS011;46837;52.446;-1.930;2024-02-14T04:42:07;6.42;;;1.40;;
60641;SDS011;46837;52.446;-1.930;2024-02-14T04:43:07;8.76;;;0.92;;
60641;SDS011;46837;52.446;-1.930;2024-02-14T04:44:08;6.78;;;0.94;;
60641;SDS011;46837;52.446;-1.930;2024-02-14T04:45:07;8.28;;;1.38;;
60641;SDS011;46837;52.446;-1.930;2024-02-14T04:46:07;23.52;;;3.78;;
60641;SDS011;46837;52.446;-1.930;2024-02-14T04:47:07;5.06;;;1.04;;
60641;SDS011;46837;52.446;-1.930;2024-02-14T04:48:07;3.64;;;1.38;;
60641;SDS011;46837;52.446;-1.930;2024-02-14T04:49:07;5.88;;;1.54;;
60641;SDS011;46837;52.446;-1.930;2024-02-14T04:50:07;5.04;;;1.42;;
60641;SDS011;46837;52.446;-1.930;2024-02-14T04:51:07;5.70;;;1.44;;
60641;SDS011;46837;52.446;-1.930;2024-02-14T04:52:07;13.44;;;1.74;;
60641;SDS011;46837;52.446;-1.930;2024-02-14T04:53:07;2.72;;;1.28;;
60641;SDS011;46837;52.446;-1.930;2024-02-14T04:54:07;16.76;;;1.68;;
60641;SDS011;46837;52.446;-1.930;2024-02-14T04:55:07;6.74;;;1.52;;
60641;SDS011;46837;52.446;-1.930;2024-02-14T04:56:07;8.16;;;1.58;;
60641;SDS011;46837;52.446;-1.930;2024-02-14T04:57:07;2.86;;;0.94;;
60641;SDS011;46837;52.446;-1.930;2024-02-14T04:58:07;5.60;;;1.88;;
60641;SDS011;46837;52.446;-1.930;2024-02-14T04:59:07;8.12;;;2.36;;
60641;SDS011;46837;52.446;-1.930;2024-02-14T05:00:07;9.22;;;1.46;;
60641;SDS011;46837;52.446;-1.930;2024-02-14T05:01:08;9.32;;;1.60;;
60641;SDS011;46837;52.446;-1.930;2024-02-14T05:02:07;8.74;;;1.54;;
60641;SDS011;46837;52.446;-1.930;2024-02-14T05:03:07;7.92;;;1.16;;
60641;SDS011;46837;52.446;-1.930;2024-02-14T05:04:07;6.96;;;1.80;;
60641;SDS011;46837;52.446;-1.930;2024-02-14T05:05:07;11.48;;;1.46;;
60641;SDS011;46837;52.446;-1.930;2024-02-14T05:06:07;7.36;;;1.26;;
60641;SDS011;46837;52.446;-1.930;2024-02-14T05:07:07;10.52;;;1.64;;
60641;SDS011;46837;52.446;-1.930;2024-02-14T05:08:07;4.80;;;1.28;;
60641;SDS011;46837;52.446;-1.930;2024-02-14T05:09:07;5.76;;;1.44;;
60641;SDS011;46837;52.446;-1.930;2024-02-14T05:10:08;6.24;;;1.62;;
60641;SDS011;46837;52.446;-1.930;2024-02-14T05:11:07;5.98;;;1.68;;
60641;SDS011;46837;52.446;-1.930;2024-02-14T05:12:07;5.90;;;1.60;;
60641;SDS011;46837;52.446;-1.930;2024-02-14T05:13:07;7.38;;;1.16;;
60641;SDS011;46837;52.446;-1.930;2024-02-14T05:14:07;7.24;;;1.24;;
60641;SDS011;46837;52.446;-1.930;2024-02-14T05:15:07;8.76;;;2.20;;
60641;SDS011;46837;52.446;-1.930;2024-02-14T05:16:07;5.54;;;1.82;;
60641;SDS011;46837;52.446;-1.930;2024-02-14T05:17:07;8.00;;;1.54;;
60641;SDS011;46837;52.446;-1.930;2024-02-14T05:18:07;6.38;;;1.62;;
60641;SDS011;46837;52.446;-1.930;2024-02-14T05:19:07;6.74;;;1.48;;
60641;SDS011;46837;52.446;-1.930;2024-02-14T05:20:09;3.26;;;1.56;;
60641;SDS011;46837;52.446;-1.930;2024-02-14T05:21:07;4.48;;;1.38;;
60641;SDS011;46837;52.446;-1.930;2024-02-14T05:22:07;6.02;;;1.80;;
60641;SDS011;46837;52.446;-1.930;2024-02-14T05:23:07;6.44;;;1.80;;
60641;SDS011;46837;52.446;-1.930;2024-02-14T05:24:07;5.14;;;1.58;;
60641;SDS011;46837;52.446;-1.930;2024-02-14T05:25:07;8.50;;;2.46;;
60641;SDS011;46837;52.446;-1.930;2024-02-14T05:26:07;10.36;;;1.68;;
60641;SDS011;46837;52.446;-1.930;2024-02-14T05:27:07;4.74;;;1.30;;
60641;SDS011;46837;52.446;-1.930;2024-02-14T05:28:07;5.00;;;1.42;;
60641;SDS011;46837;52.446;-1.930;2024-02-14T05:29:07;6.16;;;1.70;;
60641;SDS011;46837;52.446;-1.930;2024-02-14T05:30:07;5.42;;;1.28;;
60641;SDS011;46837;52.446;-1.930;2024-02-14T05:31:07;6.56;;;1.70;;
60641;SDS011;46837;52.446;-1.930;2024-02-14T05:32:07;2.88;;;1.94;;
60641;SDS011;46837;52.446;-1.930;2024-02-14T05:33:07;4.76;;;1.66;;
60641;SDS011;46837;52.446;-1.930;2024-02-14T05:34:07;4.76;;;1.50;;
60641;SDS011;46837;52.446;-1.930;2024-02-14T05:35:07;4.30;;;1.58;;
60641;SDS011;46837;52.446;-1.930;2024-02-14T05:36:07;4.16;;;2.04;;
60641;SDS011;46837;52.446;-1.930;2024-02-14T05:37:07;5.34;;;2.44;;
60641;SDS011;46837;52.446;-1.930;2024-02-14T05:38:08;7.54;;;2.30;;
60641;SDS011;46837;52.446;-1.930;2024-02-14T05:39:08;6.78;;;2.18;;
60641;SDS011;46837;52.446;-1.930;2024-02-14T05:40:08;6.48;;;2.30;;
60641;SDS011;46837;52.446;-1.930;2024-02-14T05:41:08;5.02;;;2.54;;
60641;SDS011;46837;52.446;-1.930;2024-02-14T05:42:07;3.94;;;2.52;;
60641;SDS011;46837;52.446;-1.930;2024-02-14T05:43:08;9.94;;;2.02;;
60641;SDS011;46837;52.446;-1.930;2024-02-14T05:44:07;5.06;;;2.26;;
60641;SDS011;46837;52.446;-1.930;2024-02-14T05:45:07;5.38;;;2.62;;
60641;SDS011;46837;52.446;-1.930;2024-02-14T05:46:07;5.02;;;2.60;;
60641;SDS011;46837;52.446;-1.930;2024-02-14T05:47:07;9.46;;;2.50;;
60641;SDS011;46837;52.446;-1.930;2024-02-14T05:48:07;4.04;;;2.76;;
60641;SDS011;46837;52.446;-1.930;2024-02-14T05:49:07;5.54;;;2.20;;
60641;SDS011;46837;52.446;-1.930;2024-02-14T05:50:07;4.54;;;2.40;;
60641;SDS011;46837;52.446;-1.930;2024-02-14T05:51:07;8.34;;;4.60;;
60641;SDS011;46837;52.446;-1.930;2024-02-14T05:52:07;6.14;;;2.26;;
60641;SDS011;46837;52.446;-1.930;2024-02-14T05:53:07;3.68;;;2.06;;
60641;SDS011;46837;52.446;-1.930;2024-02-14T05:54:07;7.48;;;4.04;;